Time;durP1;ratioP1;P1;durP2;ratioP2;P2;SDS_P1;SDS_P2;PMS_P1;PMS_P2;Temp;Humidity;BMP_temperature;BMP_pressure;BME280_temperature;BME280_humidity;BME280_pressure;Samples;Min_cycle;Max_cycle;Signal;HPM_P1;HPM_P2
2022/11/26 00:01:42;;;;;;;7.13;3.50;;;;;;;0.35;74.40;96869.31;5134898;27;20050;-62
2022/11/26 00:04:09;;;;;;;4.72;3.28;;;;;;;0.32;74.40;96865.00;5134766;27;20043;-62
2022/11/26 00:06:43;;;;;;;5.70;3.20;;;;;;;0.24;74.74;96864.94;5134621;27;20477;-62
2022/11/26 00:09:16;;;;;;;5.10;3.40;;;;;;;0.29;74.95;96861.53;5134795;27;20051;-62
2022/11/26 00:11:43;;;;;;;4.95;2.97;;;;;;;0.28;74.87;96863.25;5134149;27;20051;-62
2022/11/26 00:14:14;;;;;;;4.35;3.03;;;;;;;0.27;74.97;96865.81;5134481;27;20039;-62
2022/11/26 00:16:41;;;;;;;6.75;3.53;;;;;;;0.31;75.32;96868.44;5134329;27;20496;-61
2022/11/26 00:19:08;;;;;;;5.18;3.80;;;;;;;0.29;75.75;96866.69;5134440;27;20484;-62
2022/11/26 00:21:39;;;;;;;5.03;3.90;;;;;;;0.33;75.26;96869.28;5134194;27;20094;-62
2022/11/26 00:24:13;;;;;;;4.15;3.53;;;;;;;0.34;75.47;96875.31;5134436;27;20172;-62
2022/11/26 00:26:41;;;;;;;6.28;4.20;;;;;;;0.29;76.01;96871.81;5134489;27;20096;-62
2022/11/26 00:29:10;;;;;;;3.88;2.95;;;;;;;0.33;77.06;96876.19;5134474;27;20077;-62
2022/11/26 00:31:37;;;;;;;5.63;3.58;;;;;;;0.27;76.24;96866.66;5134328;27;20111;-62
2022/11/26 00:34:04;;;;;;;3.83;3.22;;;;;;;0.24;76.21;96876.97;5134274;27;20104;-62
2022/11/26 00:36:33;;;;;;;4.88;3.53;;;;;;;0.17;76.25;96883.75;5134187;27;20526;-62
2022/11/26 00:39:05;;;;;;;4.32;3.30;;;;;;;0.22;76.15;96886.38;5134203;27;20147;-62
2022/11/26 00:41:37;;;;;;;4.75;3.65;;;;;;;0.27;76.45;96884.69;5134258;27;20495;-62
2022/11/26 00:44:04;;;;;;;4.80;3.20;;;;;;;0.32;76.24;96883.03;5134148;27;20050;-62
2022/11/26 00:46:31;;;;;;;3.53;3.10;;;;;;;0.37;76.49;96880.50;5134158;27;20051;-63
2022/11/26 00:48:58;;;;;;;4.03;3.10;;;;;;;0.36;76.38;96886.50;5134080;27;20488;-62
2022/11/26 00:51:27;;;;;;;5.70;3.75;;;;;;;0.44;77.59;96883.97;5134150;27;20070;-62
2022/11/26 00:53:56;;;;;;;4.70;3.28;;;;;;;0.53;77.12;96890.88;5134036;27;20047;-62
2022/11/26 00:56:25;;;;;;;5.47;3.55;;;;;;;0.59;76.28;96889.25;5134053;27;20051;-62
2022/11/26 00:58:52;;;;;;;3.90;3.00;;;;;;;0.61;76.12;96889.25;5134060;27;20100;-62
2022/11/26 01:01:21;;;;;;;4.70;3.60;;;;;;;0.61;76.01;96900.38;5133943;27;20139;-62
2022/11/26 01:03:48;;;;;;;5.13;3.55;;;;;;;0.62;76.16;96901.25;5134038;27;20553;-61
2022/11/26 01:06:19;;;;;;;6.28;3.65;;;;;;;0.61;75.88;96900.38;5134033;27;20157;-62
2022/11/26 01:08:46;;;;;;;5.40;3.55;;;;;;;0.63;76.74;96909.00;5134015;27;20092;-62
2022/11/26 01:11:16;;;;;;;5.30;3.20;;;;;;;0.60;76.64;96898.69;5133818;27;20107;-62
2022/11/26 01:13:47;;;;;;;426.27;231.50;;;;;;;0.53;76.73;96901.19;5133989;27;20062;-63
2022/11/26 01:16:19;;;;;;;;;;;;;;;0.56;76.77;96901.22;5134047;27;20081;-62
2022/11/26 01:18:47;;;;;;;24.88;14.07;;;;;;;0.57;76.60;96913.25;5133906;27;20013;-62
2022/11/26 01:21:14;;;;;;;8.57;4.55;;;;;;;0.49;76.65;96903.75;5133725;27;20051;-62
2022/11/26 01:23:42;;;;;;;5.63;4.07;;;;;;;0.42;77.17;96903.69;5134914;27;20051;-63
2022/11/26 01:26:15;;;;;;;4.15;3.40;;;;;;;0.42;76.87;96903.69;5137818;27;20081;-62
2022/11/26 01:28:44;;;;;;;3.85;3.28;;;;;;;0.43;77.01;96901.13;5137829;27;20043;-62
2022/11/26 01:31:21;;;;;;;4.78;3.75;;;;;;;0.37;77.27;96904.50;5137741;27;20051;-63
2022/11/26 01:33:48;;;;;;;3.33;3.03;;;;;;;0.38;76.97;96902.78;5137720;27;20553;-62
2022/11/26 01:36:29;;;;;;;5.57;3.30;;;;;;;0.39;76.56;96901.94;5137648;27;20088;-63
2022/11/26 01:38:59;;;;;;;4.25;3.47;;;;;;;0.41;76.72;96901.94;5137574;27;20054;-62
2022/11/26 01:41:44;;;;;;;5.32;3.70;;;;;;;0.37;76.80;96888.22;5137391;27;20051;-63
2022/11/26 01:44:18;;;;;;;5.53;3.78;;;;;;;0.29;76.55;96890.72;5137447;27;20043;-62
2022/11/26 01:46:46;;;;;;;4.25;3.42;;;;;;;0.30;76.57;96882.13;5137462;27;20131;-61
2022/11/26 01:49:21;;;;;;;8.38;3.38;;;;;;;0.27;77.02;96884.69;5137340;27;20047;-62
2022/11/26 01:51:52;;;;;;;4.80;3.58;;;;;;;0.24;76.89;96882.94;5137341;27;20076;-61
2022/11/26 01:54:20;;;;;;;4.45;3.30;;;;;;;0.27;76.73;96887.25;5137354;27;20078;-62
2022/11/26 01:56:49;;;;;;;4.22;3.15;;;;;;;0.29;76.46;96888.16;5137231;27;20047;-62
2022/11/26 01:59:23;;;;;;;4.50;2.90;;;;;;;0.21;76.20;96890.66;5137136;27;20134;-62
2022/11/26 02:01:52;;;;;;;5.75;4.07;;;;;;;0.17;76.41;96886.31;5137143;27;20322;-62
2022/11/26 02:04:23;;;;;;;5.00;3.58;;;;;;;0.19;76.48;96884.63;5137127;27;20558;-62
2022/11/26 02:06:52;;;;;;;5.63;3.88;;;;;;;0.15;76.50;96887.16;5137197;27;20541;-62
2022/11/26 02:09:19;;;;;;;6.05;3.13;;;;;;;0.13;76.67;96879.44;5136997;27;20043;-62
2022/11/26 02:11:46;;;;;;;6.18;4.25;;;;;;;0.11;76.18;96879.41;5136921;27;20047;-62
2022/11/26 02:14:17;;;;;;;5.90;3.58;;;;;;;0.12;76.52;96890.59;5136856;27;20051;-62
2022/11/26 02:16:54;;;;;;;;;;;;;;;0.06;76.36;96883.66;5137125;27;20074;-62
2022/11/26 02:19:58;;;;;;;4.63;3.45;;;;;;;-0.03;76.70;96893.88;5136824;27;19919;-62
2022/11/26 02:22:48;;;;;;;4.88;3.65;;;;;;;-0.05;77.22;96899.00;5136691;27;20059;-62
2022/11/26 02:25:19;;;;;;;5.07;3.45;;;;;;;-0.13;77.31;96901.50;5136691;27;20082;-62
2022/11/26 02:28:20;;;;;;;8.00;3.35;;;;;;;-0.17;77.38;96909.16;5136591;27;20051;-62
2022/11/26 02:30:56;;;;;;;6.00;3.85;;;;;;;-0.16;77.36;96909.16;5136583;27;20053;-62
2022/11/26 02:33:31;;;;;;;6.38;3.08;;;;;;;-0.15;76.96;96910.88;5136534;27;20552;-62
2022/11/26 02:36:01;;;;;;;4.38;3.10;;;;;;;-0.32;77.20;96915.00;5135404;27;20399;-62
2022/11/26 02:38:31;;;;;;;4.63;3.13;;;;;;;-0.38;77.22;96913.22;5136514;27;20073;-62
2022/11/26 02:40:59;;;;;;;5.35;3.60;;;;;;;-0.44;77.70;96910.56;5136331;27;20086;-62
2022/11/26 02:43:27;;;;;;;3.40;2.67;;;;;;;-0.46;77.62;96912.25;5136432;27;20511;-62
2022/11/26 02:46:00;;;;;;;5.93;3.13;;;;;;;-0.56;78.06;96914.72;5136368;27;20048;-62
2022/11/26 02:48:32;;;;;;;5.45;3.40;;;;;;;-0.53;78.07;96916.47;5136354;27;20043;-62
2022/11/26 02:51:01;;;;;;;4.18;3.42;;;;;;;-0.52;78.39;96919.06;5136196;27;20122;-62
2022/11/26 02:53:31;;;;;;;3.08;2.33;;;;;;;-0.52;78.53;96926.78;5136167;27;20039;-62
2022/11/26 02:56:03;;;;;;;4.93;3.30;;;;;;;-0.48;78.51;96931.94;5136144;27;20138;-62
2022/11/26 02:58:31;;;;;;;6.03;3.00;;;;;;;-0.54;78.94;96937.88;5136029;27;20077;-62
2022/11/26 03:01:06;;;;;;;4.45;2.80;;;;;;;-0.52;78.59;96937.06;5135967;27;20544;-62
2022/11/26 03:03:37;;;;;;;4.03;3.38;;;;;;;-0.48;78.46;96940.50;5136037;27;20115;-62
2022/11/26 03:06:09;;;;;;;3.90;2.70;;;;;;;-0.47;78.26;96944.81;5135854;27;20058;-62
2022/11/26 03:08:36;;;;;;;4.32;2.85;;;;;;;-0.44;77.96;96955.16;5135748;27;20058;-62
2022/11/26 03:11:04;;;;;;;5.75;3.25;;;;;;;-0.46;77.87;96949.13;5135762;27;20092;-61
2022/11/26 03:13:32;;;;;;;4.75;3.08;;;;;;;-0.41;77.75;96957.75;5135898;27;20047;-62
2022/11/26 03:16:01;;;;;;;3.50;2.67;;;;;;;-0.41;77.67;96950.06;5135451;27;20087;-62
2022/11/26 03:18:28;;;;;;;5.00;2.95;;;;;;;-0.33;77.27;96957.81;5135764;27;20118;-62
2022/11/26 03:20:55;;;;;;;8.85;3.47;;;;;;;-0.30;77.38;96959.59;5135664;27;20130;-62
2022/11/26 03:23:22;;;;;;;4.10;3.15;;;;;;;-0.37;77.70;96950.09;5135545;27;20043;-62
2022/11/26 03:25:49;;;;;;;6.47;3.40;;;;;;;-0.39;78.09;96950.06;5135476;27;20054;-61
2022/11/26 03:28:16;;;;;;;4.88;3.10;;;;;;;-0.45;78.07;96939.72;5135433;27;20098;-62
2022/11/26 03:30:44;;;;;;;3.75;3.35;;;;;;;-0.47;78.35;96942.25;5135332;27;20134;-62
2022/11/26 03:33:12;;;;;;;4.15;3.10;;;;;;;-0.43;77.90;96950.84;5135342;27;20047;-62
2022/11/26 03:35:39;;;;;;;3.85;2.92;;;;;;;-0.44;77.33;96956.84;5135283;27;20587;-62
2022/11/26 03:38:07;;;;;;;3.72;2.97;;;;;;;-0.42;77.41;96957.75;5135175;27;20051;-62
2022/11/26 03:40:34;;;;;;;3.80;2.83;;;;;;;-0.38;77.26;96969.78;5135269;27;20051;-62
2022/11/26 03:43:01;;;;;;;4.53;3.25;;;;;;;-0.50;77.70;96973.06;5135153;27;20084;-62
2022/11/26 03:45:28;;;;;;;3.97;2.85;;;;;;;-0.56;77.98;96965.25;5135145;27;20047;-62
2022/11/26 03:47:55;;;;;;;5.28;3.20;;;;;;;-0.54;78.03;96971.31;5134803;27;20078;-62
2022/11/26 03:50:23;;;;;;;5.28;2.85;;;;;;;-0.53;78.14;96973.03;5134985;27;20078;-62
2022/11/26 03:52:50;;;;;;;5.28;2.90;;;;;;;-0.46;77.61;96979.09;5134926;27;20051;-62
2022/11/26 03:55:17;;;;;;;6.75;3.33;;;;;;;-0.45;77.04;96981.69;5134824;27;20055;-62
2022/11/26 03:57:44;;;;;;;3.40;2.63;;;;;;;-0.41;77.10;96983.47;5134875;27;20043;-63
2022/11/26 04:00:13;;;;;;;5.80;3.45;;;;;;;-0.45;77.44;96989.41;5134802;27;20404;-62
2022/11/26 04:02:40;;;;;;;4.20;2.90;;;;;;;-0.58;78.16;96988.38;5134667;27;20047;-62
2022/11/26 04:05:08;;;;;;;7.28;3.33;;;;;;;-0.55;78.00;96993.56;5134804;27;20121;-62
2022/11/26 04:07:36;;;;;;;3.58;2.63;;;;;;;-0.59;77.52;96989.22;5134757;27;20133;-62
2022/11/26 04:10:04;;;;;;;3.40;2.90;;;;;;;-0.61;78.10;96992.63;5134694;27;20051;-62
2022/11/26 04:12:31;;;;;;;4.10;3.17;;;;;;;-0.61;77.87;96996.03;5134603;27;20488;-62
2022/11/26 04:14:59;;;;;;;3.92;2.78;;;;;;;-0.71;77.78;97002.78;5134522;27;20043;-62
2022/11/26 04:17:26;;;;;;;3.30;2.50;;;;;;;-0.66;77.91;97013.97;5134399;27;20039;-62
2022/11/26 04:19:53;;;;;;;4.28;2.50;;;;;;;-0.62;77.88;97019.16;5134580;27;20454;-61
2022/11/26 04:22:20;;;;;;;3.63;2.78;;;;;;;-0.58;77.72;97014.09;5134392;27;20131;-62
2022/11/26 04:24:49;;;;;;;233.35;139.30;;;;;;;-0.60;77.41;97010.63;5134509;27;20043;-62
2022/11/26 04:27:16;;;;;;;27.13;16.15;;;;;;;-0.61;76.98;97013.19;5134388;27;20043;-61
2022/11/26 04:29:43;;;;;;;7.10;5.35;;;;;;;-0.72;77.10;97018.16;5134271;27;20089;-62
2022/11/26 04:32:10;;;;;;;7.50;3.53;;;;;;;-0.72;76.90;97023.31;5134222;27;20086;-62
2022/11/26 04:34:37;;;;;;;5.57;3.55;;;;;;;-0.72;76.90;97033.59;5134284;27;20548;-62
2022/11/26 04:37:04;;;;;;;5.78;3.72;;;;;;;-0.71;76.86;97028.47;5134282;27;20046;-62
2022/11/26 04:39:31;;;;;;;3.88;3.22;;;;;;;-0.73;76.47;97024.16;5134284;27;20051;-61
2022/11/26 04:41:59;;;;;;;5.22;2.80;;;;;;;-0.92;76.82;97029.88;5134195;27;20055;-62
2022/11/26 04:44:27;;;;;;;4.82;2.40;;;;;;;-1.00;78.03;97025.47;5134197;27;20051;-62
2022/11/26 04:46:54;;;;;;;5.35;2.53;;;;;;;-1.05;78.42;97022.81;5134186;27;20476;-62
2022/11/26 04:49:21;;;;;;;2.65;2.30;;;;;;;-1.04;78.23;97020.28;5134076;27;20110;-62
2022/11/26 04:51:47;;;;;;;2.97;2.05;;;;;;;-1.07;78.42;97032.19;5133968;27;20488;-61
2022/11/26 04:54:15;;;;;;;3.92;2.15;;;;;;;-1.17;78.44;97031.19;5133998;27;20083;-61
2022/11/26 04:56:42;;;;;;;3.65;2.53;;;;;;;-1.19;78.83;97026.03;5134009;27;20049;-61
2022/11/26 04:59:10;;;;;;;3.70;2.45;;;;;;;-1.17;78.84;97028.63;5136151;27;20078;-62
2022/11/26 05:01:37;;;;;;;2.95;2.67;;;;;;;-1.20;79.03;97032.00;5138221;27;20062;-61
2022/11/26 05:04:05;;;;;;;4.10;2.78;;;;;;;-1.16;79.18;97043.19;5138215;27;20450;-61
2022/11/26 05:06:32;;;;;;;4.13;2.70;;;;;;;-1.16;79.34;97045.75;5138226;27;20130;-62
2022/11/26 05:08:59;;;;;;;3.78;3.08;;;;;;;-1.14;79.30;97046.66;5138128;27;20381;-62
2022/11/26 05:11:26;;;;;;;2.63;2.42;;;;;;;-1.16;79.15;97044.06;5138190;27;20078;-62
2022/11/26 05:13:53;;;;;;;3.58;2.30;;;;;;;-1.16;79.56;97056.91;5138115;27;20096;-61
2022/11/26 05:16:21;;;;;;;6.25;3.05;;;;;;;-1.08;79.13;97066.44;5137733;27;20074;-61
2022/11/26 05:18:48;;;;;;;4.50;2.13;;;;;;;-1.11;79.08;97063.81;5138042;27;20071;-61
2022/11/26 05:21:16;;;;;;;5.13;2.45;;;;;;;-1.12;78.46;97060.38;5137933;27;20074;-61
2022/11/26 05:23:43;;;;;;;3.92;3.53;;;;;;;-1.13;78.50;97066.34;5137938;27;20043;-61
2022/11/26 05:26:10;;;;;;;3.13;2.67;;;;;;;-1.10;78.11;97075.81;5137859;27;20051;-61
2022/11/26 05:28:37;;;;;;;3.38;2.53;;;;;;;-1.16;78.73;97077.44;5137752;27;20047;-61
2022/11/26 05:31:05;;;;;;;2.83;2.40;;;;;;;-1.18;79.21;97079.13;5137751;27;20115;-61
2022/11/26 05:33:33;;;;;;;3.28;2.33;;;;;;;-1.18;79.15;97086.81;5137703;27;20109;-61
2022/11/26 05:36:01;;;;;;;3.50;2.55;;;;;;;-1.19;78.91;97092.81;5137678;27;20104;-61
2022/11/26 05:38:28;;;;;;;5.53;2.63;;;;;;;-1.13;79.18;97091.16;5137603;27;20043;-61
2022/11/26 05:40:55;;;;;;;4.15;2.35;;;;;;;-1.10;78.69;97098.91;5137534;27;20051;-61
2022/11/26 05:43:24;;;;;;;3.55;2.53;;;;;;;-1.06;78.33;97098.13;5137494;27;20062;-61
2022/11/26 05:45:51;;;;;;;19.08;2.70;;;;;;;-1.18;78.60;97089.38;5137362;27;20043;-61
2022/11/26 05:48:19;;;;;;;3.42;2.50;;;;;;;-1.12;79.51;97109.16;5137350;27;20040;-61
2022/11/26 05:50:48;;;;;;;3.63;2.45;;;;;;;-1.09;79.64;97113.50;5137368;27;20070;-61
2022/11/26 05:53:16;;;;;;;2.47;2.10;;;;;;;-1.02;79.52;97105.06;5137481;27;20443;-60
2022/11/26 05:55:44;;;;;;;5.68;2.28;;;;;;;-0.98;78.75;97109.41;5137281;27;20488;-61
2022/11/26 05:58:11;;;;;;;2.45;2.05;;;;;;;-0.95;78.48;97116.31;5137143;27;20130;-61
2022/11/26 06:00:38;;;;;;;3.88;2.55;;;;;;;-0.45;80.77;97111.97;5137148;27;20055;-61
2022/11/26 06:03:06;;;;;;;3.80;2.10;;;;;;;1.05;76.39;97118.88;5137073;27;20055;-61
2022/11/26 06:05:35;;;;;;;2.55;1.90;;;;;;;2.75;68.81;97120.72;5137059;27;20082;-61
2022/11/26 06:08:05;;;;;;;1.63;1.52;;;;;;;4.52;63.67;97111.00;5136982;27;20381;-61
2022/11/26 06:10:32;;;;;;;3.72;1.88;;;;;;;6.00;57.81;97118.56;5136871;27;20400;-62
2022/11/26 06:13:00;;;;;;;1.95;1.75;;;;;;;7.50;52.55;97114.91;5137011;27;20458;-62
2022/11/26 06:15:28;;;;;;;2.25;1.55;;;;;;;8.91;49.16;97122.69;5136772;27;20104;-62
2022/11/26 06:17:55;;;;;;;2.83;2.00;;;;;;;10.10;45.85;97124.19;5136591;27;20044;-62
2022/11/26 06:20:22;;;;;;;3.15;2.00;;;;;;;11.29;43.12;97122.56;5136887;27;20054;-62
2022/11/26 06:22:50;;;;;;;1.85;1.50;;;;;;;12.34;40.33;97133.09;5136600;27;20047;-63
2022/11/26 06:25:19;;;;;;;2.33;1.60;;;;;;;13.36;38.02;97135.44;5136729;27;20051;-62
2022/11/26 06:27:47;;;;;;;3.47;1.73;;;;;;;14.09;36.52;97129.84;5136775;27;20122;-62
2022/11/26 06:30:15;;;;;;;4.85;2.13;;;;;;;14.84;34.98;97133.69;5136567;27;20043;-63
2022/11/26 06:32:43;;;;;;;1.90;1.73;;;;;;;15.20;34.86;97132.88;5136565;27;20593;-62
2022/11/26 06:35:11;;;;;;;2.10;1.88;;;;;;;15.99;33.57;97135.28;5136452;27;20039;-62
2022/11/26 06:37:38;;;;;;;2.10;1.50;;;;;;;16.44;32.26;97140.91;5136464;27;20043;-63
2022/11/26 06:40:06;;;;;;;2.05;1.73;;;;;;;16.78;31.41;97144.41;5136499;27;20409;-62
2022/11/26 06:42:35;;;;;;;3.42;1.40;;;;;;;17.39;31.23;97145.56;5136320;27;20100;-62
2022/11/26 06:45:02;;;;;;;2.08;1.45;;;;;;;18.11;30.70;97145.03;5136370;27;20039;-63
2022/11/26 06:47:30;;;;;;;2.20;1.65;;;;;;;18.89;28.54;97150.09;5136233;27;20088;-62
2022/11/26 06:49:57;;;;;;;2.05;1.60;;;;;;;19.29;28.49;97146.75;5136252;27;20119;-62
2022/11/26 06:52:24;;;;;;;2.55;1.70;;;;;;;19.80;27.48;97143.47;5136135;27;20104;-61
2022/11/26 06:54:52;;;;;;;2.95;1.65;;;;;;;20.29;26.93;97141.16;5136209;27;20051;-63
2022/11/26 06:57:24;;;;;;;2.33;1.90;;;;;;;20.69;25.66;97150.84;5136106;27;20064;-61
2022/11/26 06:59:54;;;;;;;2.40;2.05;;;;;;;21.34;24.90;97142.78;5136107;27;20473;-63
2022/11/26 07:02:24;;;;;;;2.40;2.17;;;;;;;21.89;24.75;97138.84;5136013;27;20051;-63
2022/11/26 07:04:55;;;;;;;1.95;1.63;;;;;;;21.98;24.84;97141.78;5135938;27;20564;-61
2022/11/26 07:07:23;;;;;;;2.33;1.98;;;;;;;22.06;25.41;97142.03;5135847;27;20053;-62
2022/11/26 07:09:56;;;;;;;3.05;1.50;;;;;;;22.25;24.90;97137.97;5135863;27;20050;-62
2022/11/26 07:12:24;;;;;;;3.05;2.00;;;;;;;22.62;24.44;97140.50;5135713;27;20480;-62
2022/11/26 07:14:55;;;;;;;1.88;1.65;;;;;;;22.53;23.71;97136.72;5135828;27;20096;-62
2022/11/26 07:17:28;;;;;;;2.35;1.90;;;;;;;22.72;23.66;97141.47;5135500;27;20100;-63
2022/11/26 07:19:58;;;;;;;1.70;1.60;;;;;;;23.07;24.34;97145.00;5135676;27;20496;-62
2022/11/26 07:22:27;;;;;;;3.70;1.70;;;;;;;23.46;23.68;97147.28;5134622;27;20054;-63
2022/11/26 07:24:55;;;;;;;1.92;1.70;;;;;;;23.92;22.93;97146.25;5135527;27;20058;-62
2022/11/26 07:27:26;;;;;;;1.80;1.60;;;;;;;24.46;21.06;97140.91;5135543;27;20051;-62
2022/11/26 07:29:54;;;;;;;2.38;1.77;;;;;;;24.81;22.33;97153.06;5135466;27;20047;-62
2022/11/26 07:32:21;;;;;;;2.15;1.50;;;;;;;25.07;21.65;97157.16;5135378;27;20043;-63
2022/11/26 07:34:49;;;;;;;2.33;1.90;;;;;;;24.48;21.61;97152.31;5135331;27;20058;-63
2022/11/26 07:37:16;;;;;;;3.88;2.33;;;;;;;24.02;22.79;97154.38;5135285;27;20047;-63
2022/11/26 07:39:44;;;;;;;2.85;2.20;;;;;;;23.84;22.41;97158.44;5135139;27;20043;-61
2022/11/26 07:42:13;;;;;;;2.20;1.80;;;;;;;24.04;22.25;97153.25;5135070;27;20400;-61
2022/11/26 07:44:54;;;;;;;3.63;2.30;;;;;;;24.57;21.76;97158.69;5135059;27;20054;-62
2022/11/26 07:47:28;;;;;;;2.78;2.25;;;;;;;24.54;21.30;97151.81;5134945;27;20058;-63
2022/11/26 07:49:55;;;;;;;3.67;2.40;;;;;;;25.19;20.32;97144.50;5135032;27;20484;-63
2022/11/26 07:52:24;;;;;;;4.75;2.20;;;;;;;25.68;20.26;97152.69;5134917;27;20492;-63
2022/11/26 07:54:53;;;;;;;2.35;2.00;;;;;;;25.81;20.30;97144.38;5134823;27;20066;-60
2022/11/26 07:57:26;;;;;;;2.42;2.13;;;;;;;25.82;19.74;97153.22;5134975;27;20078;-62
2022/11/26 07:59:56;;;;;;;2.10;1.90;;;;;;;25.86;19.18;97147.44;5135091;27;20046;-63
2022/11/26 08:02:24;;;;;;;2.10;1.88;;;;;;;26.16;19.32;97147.47;5134741;27;20051;-63
2022/11/26 08:04:55;;;;;;;2.30;2.10;;;;;;;26.90;18.71;97152.25;5134756;27;20047;-62
2022/11/26 08:07:23;;;;;;;2.90;1.95;;;;;;;26.50;19.55;97143.47;5135063;27;20107;-62
2022/11/26 08:09:51;;;;;;;2.05;1.55;;;;;;;25.86;19.55;97141.25;5134688;27;20051;-62
2022/11/26 08:12:19;;;;;;;1.70;1.60;;;;;;;25.31;19.71;97145.25;5134718;27;20055;-62
2022/11/26 08:14:47;;;;;;;2.30;1.70;;;;;;;24.85;19.73;97142.94;5134445;27;20043;-62
2022/11/26 08:17:14;;;;;;;4.05;3.03;;;;;;;25.12;19.50;97144.19;5134329;27;20043;-62
2022/11/26 08:19:42;;;;;;;3.67;3.10;;;;;;;25.34;19.12;97143.13;5134618;27;20508;-62
2022/11/26 08:22:11;;;;;;;1.67;1.58;;;;;;;24.32;20.15;97142.94;5133746;27;20100;-62
2022/11/26 08:24:39;;;;;;;1.95;1.85;;;;;;;23.72;21.09;97143.44;5134282;27;20039;-62
2022/11/26 08:27:06;;;;;;;2.63;1.77;;;;;;;23.02;22.01;97149.00;5134326;27;20093;-62
2022/11/26 08:29:36;;;;;;;2.35;1.52;;;;;;;22.56;22.73;97144.47;5134279;27;20401;-62
2022/11/26 08:32:04;;;;;;;2.05;1.55;;;;;;;21.90;23.24;97142.34;5134300;27;20400;-61
2022/11/26 08:34:31;;;;;;;2.55;1.67;;;;;;;21.34;24.19;97149.91;5133494;27;20124;-61
2022/11/26 08:36:59;;;;;;;1.80;1.63;;;;;;;21.19;23.72;97152.72;5134257;27;20082;-62
2022/11/26 08:39:29;;;;;;;2.00;1.50;;;;;;;20.71;24.00;97140.94;5134220;27;20431;-61
2022/11/26 08:41:57;;;;;;;1.58;1.48;;;;;;;19.94;24.86;97145.22;5134418;27;20527;-61
2022/11/26 08:44:25;;;;;;;1.48;1.30;;;;;;;19.35;25.24;97145.53;5134059;27;20043;-62
2022/11/26 08:46:55;;;;;;;2.55;1.55;;;;;;;18.51;26.71;97149.72;5134172;27;20051;-61
2022/11/26 08:49:22;;;;;;;1.80;1.50;;;;;;;17.66;28.70;97151.09;5134175;27;20047;-62
2022/11/26 08:51:49;;;;;;;2.28;1.70;;;;;;;17.01;28.51;97144.94;5134047;27;20051;-61
2022/11/26 08:54:16;;;;;;;2.40;1.83;;;;;;;15.88;30.71;97148.97;5134200;27;20039;-61
2022/11/26 08:56:46;;;;;;;1.73;1.63;;;;;;;15.36;32.22;97140.91;5134033;27;20077;-61
2022/11/26 08:59:15;;;;;;;2.35;1.58;;;;;;;15.15;31.88;97148.88;5134044;27;20439;-61
2022/11/26 09:01:43;;;;;;;1.90;1.58;;;;;;;14.78;32.26;97155.88;5134047;27;20043;-61
2022/11/26 09:04:10;;;;;;;2.92;2.08;;;;;;;14.26;33.45;97149.31;5133913;27;20092;-61
2022/11/26 09:06:39;;;;;;;1.77;1.52;;;;;;;13.84;34.32;97156.31;5133997;27;20047;-60
2022/11/26 09:09:13;;;;;;;2.03;1.80;;;;;;;13.77;34.16;97153.09;5133943;27;20047;-61
2022/11/26 09:11:43;;;;;;;2.08;1.88;;;;;;;13.61;34.32;97150.25;5133911;27;20092;-60
2022/11/26 09:14:13;;;;;;;2.72;1.67;;;;;;;13.25;35.78;97149.84;5133845;27;20065;-60
2022/11/26 09:16:40;;;;;;;2.67;1.83;;;;;;;13.17;36.64;97151.06;5133726;27;20130;-61
2022/11/26 09:19:08;;;;;;;1.70;1.58;;;;;;;13.23;35.21;97150.81;5133821;27;20051;-60
2022/11/26 09:21:36;;;;;;;1.80;1.65;;;;;;;13.24;33.78;97156.03;5133946;27;20077;-60
2022/11/26 09:24:04;;;;;;;1.65;1.50;;;;;;;13.22;35.49;97146.50;5133845;27;20059;-60
2022/11/26 09:26:32;;;;;;;3.45;1.80;;;;;;;13.28;35.35;97159.41;5133781;27;20051;-61
2022/11/26 09:29:00;;;;;;;1.50;1.40;;;;;;;13.12;36.09;97151.22;5133688;27;20043;-60
2022/11/26 09:31:29;;;;;;;1.98;1.58;;;;;;;13.00;36.73;97156.06;5133754;27;20043;-62
2022/11/26 09:33:57;;;;;;;1.50;1.40;;;;;;;12.97;35.89;97157.94;5133727;27;20550;-62
2022/11/26 09:36:25;;;;;;;1.90;1.63;;;;;;;12.96;36.26;97151.84;5133570;27;20093;-59
2022/11/26 09:38:54;;;;;;;1.85;1.65;;;;;;;12.86;35.93;97143.44;5133575;27;20043;-61
2022/11/26 09:41:38;;;;;;;1.88;1.50;;;;;;;12.83;36.85;97135.72;5133528;27;20047;-62
2022/11/26 09:44:28;;;;;;;3.42;1.52;;;;;;;12.73;37.65;97136.94;5133874;27;20051;-62
2022/11/26 09:47:09;;;;;;;3.05;2.75;;;;;;;12.57;38.68;97142.75;5137553;27;20047;-62
2022/11/26 09:49:42;;;;;;;5.75;2.70;;;;;;;12.57;39.67;97139.28;5137441;27;20095;-61
2022/11/26 09:52:13;;;;;;;6.50;3.10;;;;;;;12.53;39.64;97129.81;5137291;27;20055;-62
2022/11/26 09:54:41;;;;;;;5.38;3.22;;;;;;;12.61;39.53;97125.97;5137319;27;20051;-62
2022/11/26 09:57:20;;;;;;;4.35;3.50;;;;;;;12.63;39.69;97129.41;5137320;27;20039;-61
2022/11/26 09:59:49;;;;;;;6.95;3.20;;;;;;;12.55;39.22;97122.75;5137245;27;20460;-62
2022/11/26 10:02:18;;;;;;;4.53;3.10;;;;;;;12.34;38.71;97128.69;5137316;27;20043;-62
2022/11/26 10:04:47;;;;;;;4.90;3.28;;;;;;;12.24;40.89;97130.81;5137086;27;20057;-62
2022/11/26 10:07:36;;;;;;;3.83;3.13;;;;;;;12.16;41.75;97129.38;5137119;27;20047;-62
2022/11/26 10:10:13;;;;;;;5.82;3.67;;;;;;;12.16;39.99;97122.34;5137130;27;20047;-61
2022/11/26 10:12:52;;;;;;;5.00;3.35;;;;;;;12.01;41.22;97129.81;5136974;27;20048;-62
2022/11/26 10:15:28;;;;;;;5.70;3.83;;;;;;;11.85;42.17;97134.72;5137018;27;20075;-62
2022/11/26 10:18:04;;;;;;;5.85;3.55;;;;;;;11.91;43.01;97131.03;5136722;27;20043;-62
2022/11/26 10:20:59;;;;;;;7.32;3.65;;;;;;;11.92;43.26;97124.88;5136709;27;20488;-62
2022/11/26 10:23:32;;;;;;;4.93;4.38;;;;;;;12.08;43.72;97129.63;5134595;27;20054;-62
2022/11/26 10:26:07;;;;;;;4.35;3.50;;;;;;;12.11;42.27;97121.66;5136672;27;20050;-62
2022/11/26 10:28:40;;;;;;;6.18;4.13;;;;;;;12.07;43.62;97134.00;5136586;27;20047;-61
2022/11/26 10:31:15;;;;;;;6.57;3.35;;;;;;;12.08;43.14;97117.38;5136587;27;20126;-61
2022/11/26 10:33:53;;;;;;;5.20;4.18;;;;;;;12.17;42.96;97117.97;5136585;27;20168;-62
2022/11/26 10:36:25;;;;;;;4.28;3.78;;;;;;;12.30;43.07;97121.00;5136414;27;20050;-61
2022/11/26 10:38:55;;;;;;;5.43;3.90;;;;;;;12.31;41.27;97112.22;5136391;27;20088;-61
2022/11/26 10:41:26;;;;;;;5.82;3.83;;;;;;;12.36;42.11;97116.41;5136400;27;20054;-62
2022/11/26 10:43:56;;;;;;;;;;;;;;;12.24;41.55;97115.06;5136690;27;20057;-61
2022/11/26 10:46:34;;;;;;;4.07;3.22;;;;;;;11.93;41.28;97108.25;5136429;27;20314;-61
2022/11/26 10:49:23;;;;;;;4.47;3.30;;;;;;;11.84;43.44;97106.81;5136217;27;20047;-62
2022/11/26 10:51:52;;;;;;;4.15;3.53;;;;;;;11.90;43.64;97112.72;5136139;27;20075;-61
2022/11/26 10:54:28;;;;;;;5.00;3.80;;;;;;;11.95;42.32;97108.19;5136099;27;20043;-62
2022/11/26 10:57:01;;;;;;;6.43;3.90;;;;;;;11.85;43.97;97108.50;5135191;27;20507;-61
2022/11/26 10:59:33;;;;;;;4.63;3.47;;;;;;;11.90;43.59;97100.47;5136036;27;20055;-61
2022/11/26 11:02:04;;;;;;;4.57;3.70;;;;;;;11.96;42.04;97102.03;5135919;27;20059;-62
2022/11/26 11:04:37;;;;;;;4.57;3.50;;;;;;;11.91;43.33;97102.19;5135879;27;20054;-61
2022/11/26 11:07:04;;;;;;;4.75;3.50;;;;;;;11.95;43.72;97098.53;5135978;27;20492;-62
2022/11/26 11:09:36;;;;;;;6.10;3.70;;;;;;;11.99;43.54;97102.81;5135889;27;20054;-62
2022/11/26 11:12:24;;;;;;;5.18;3.75;;;;;;;11.94;43.52;97109.94;5135741;27;20420;-60
2022/11/26 11:14:54;;;;;;;4.75;3.70;;;;;;;11.96;43.32;97108.16;5130821;27;20084;-60
2022/11/26 11:17:31;;;;;;;4.80;3.97;;;;;;;11.93;44.42;97094.28;5135268;27;20052;-60
2022/11/26 11:20:03;;;;;;;5.82;4.25;;;;;;;11.94;44.01;97096.84;5135702;27;20050;-62
2022/11/26 11:22:31;;;;;;;5.45;4.10;;;;;;;11.74;43.33;97108.03;5135593;27;20057;-59
2022/11/26 11:25:00;;;;;;;4.65;3.90;;;;;;;11.61;43.19;97095.31;5135461;27;20054;-61
2022/11/26 11:27:36;;;;;;;5.38;4.30;;;;;;;11.37;43.74;97095.22;5135504;27;20043;-61
2022/11/26 11:30:04;;;;;;;4.75;3.80;;;;;;;11.30;44.66;97114.66;5135427;27;20054;-60
2022/11/26 11:32:38;;;;;;;4.68;4.20;;;;;;;11.24;45.06;97096.53;5135456;27;20061;-59
2022/11/26 11:35:29;;;;;;;4.97;4.10;;;;;;;11.40;43.93;97096.00;5135250;27;20051;-60
2022/11/26 11:37:58;;;;;;;4.70;4.20;;;;;;;11.44;44.54;97095.03;5135482;27;20074;-59
2022/11/26 11:40:29;;;;;;;7.68;5.63;;;;;;;11.47;45.22;97101.00;5135338;27;20047;-60
2022/11/26 11:42:59;;;;;;;10.13;4.38;;;;;;;11.57;44.03;97101.56;5135270;27;20046;-60
2022/11/26 11:45:33;;;;;;;6.88;4.53;;;;;;;11.65;44.13;97103.91;5135129;27;20043;-62
2022/11/26 11:48:11;;;;;;;6.43;4.35;;;;;;;11.57;43.56;97098.09;5135105;27;20047;-60
2022/11/26 11:50:44;;;;;;;5.38;4.18;;;;;;;11.38;43.86;97101.31;5135068;27;20158;-60